createdAt,value
2018-01-28T00:02:21.738Z,6.67
2018-01-28T00:04:51.072Z,5.23
2018-01-28T00:07:21.152Z,4.87
2018-01-28T00:09:50.450Z,6.10
2018-01-28T00:12:19.589Z,7.00
2018-01-28T00:14:49.158Z,5.93
2018-01-28T00:17:18.322Z,4.80
2018-01-28T00:19:48.749Z,6.07
2018-01-28T00:22:19.133Z,5.90
2018-01-28T00:24:49.376Z,6.03
2018-01-28T00:27:18.842Z,7.00
2018-01-28T00:29:48.120Z,5.83
2018-01-28T00:32:17.744Z,5.93
2018-01-28T00:34:47.889Z,6.37
2018-01-28T00:37:17.148Z,5.20
2018-01-28T00:39:46.442Z,4.57
2018-01-28T00:42:15.811Z,6.90
2018-01-28T00:44:45.127Z,9.30
2018-01-28T00:47:15.252Z,6.47
2018-01-28T00:49:45.273Z,6.43
2018-01-28T00:52:15.406Z,7.80
2018-01-28T00:54:44.908Z,7.07
2018-01-28T00:57:14.205Z,8.50
2018-01-28T00:59:44.274Z,7.00
2018-01-28T01:02:13.354Z,10.40
2018-01-28T01:04:42.621Z,9.27
2018-01-28T01:07:12.668Z,9.03
2018-01-28T01:09:41.933Z,7.77
2018-01-28T01:12:11.990Z,9.17
2018-01-28T01:14:41.283Z,8.80
2018-01-28T01:17:10.556Z,8.93
2018-01-28T01:19:40.951Z,7.93
2018-01-28T01:22:10.854Z,12.07
2018-01-28T01:24:40.131Z,9.47
2018-01-28T01:27:09.587Z,9.17
2018-01-28T01:29:39.359Z,11.50
2018-01-28T01:32:08.616Z,9.87
2018-01-28T01:34:37.952Z,8.33
2018-01-28T01:37:07.204Z,10.60
2018-01-28T01:39:37.238Z,10.53
2018-01-28T01:42:07.286Z,9.13
2018-01-28T01:44:36.846Z,7.77
2018-01-28T01:47:07.444Z,9.50
2018-01-28T01:49:36.924Z,9.47
2018-01-28T01:52:06.193Z,7.60
2018-01-28T01:54:36.307Z,11.17
2018-01-28T01:57:06.325Z,7.60
2018-01-28T01:59:36.379Z,8.47
2018-01-28T02:02:05.779Z,8.40
2018-01-28T02:04:35.036Z,7.13
2018-01-28T02:07:04.062Z,8.60
2018-01-28T02:09:33.504Z,6.83
2018-01-28T02:12:02.765Z,7.53
2018-01-28T02:14:32.017Z,7.40
2018-01-28T02:17:01.307Z,5.80
2018-01-28T02:19:30.573Z,7.23
2018-01-28T02:21:59.820Z,6.83
2018-01-28T02:24:29.298Z,7.70
2018-01-28T02:26:58.548Z,3.77
2018-01-28T02:29:28.587Z,3.23
2018-01-28T02:31:57.993Z,3.63
2018-01-28T02:34:27.445Z,3.30
2018-01-28T02:36:57.437Z,4.63
2018-01-28T02:39:26.706Z,2.63
2018-01-28T02:41:57.312Z,3.73
2018-01-28T02:44:26.634Z,3.20
2018-01-28T02:46:57.569Z,2.57
2018-01-28T02:49:27.617Z,2.87
2018-01-28T02:51:56.626Z,3.60
2018-01-28T02:54:25.880Z,2.93
2018-01-28T02:56:56.022Z,3.63
2018-01-28T02:59:25.272Z,2.30
2018-01-28T03:01:54.534Z,2.70
2018-01-28T03:04:23.813Z,2.57
2018-01-28T03:06:53.075Z,2.13
2018-01-28T03:09:22.389Z,2.30
2018-01-28T03:11:52.423Z,2.00
2018-01-28T03:14:22.438Z,3.17
2018-01-28T03:16:52.565Z,2.37
2018-01-28T03:19:21.820Z,1.80
2018-01-28T03:21:51.081Z,2.20
2018-01-28T03:24:20.433Z,1.90
2018-01-28T03:26:49.691Z,1.63
2018-01-28T03:29:18.954Z,2.13
2018-01-28T03:31:48.797Z,2.33
2018-01-28T03:34:17.889Z,2.27
2018-01-28T03:36:46.954Z,1.70
2018-01-28T03:39:16.817Z,1.60
2018-01-28T03:41:46.070Z,2.00
2018-01-28T03:44:16.107Z,2.37
2018-01-28T03:46:45.399Z,2.00
2018-01-28T03:49:15.453Z,3.57
2018-01-28T03:51:44.876Z,2.53
2018-01-28T03:54:14.446Z,3.17
2018-01-28T03:56:43.730Z,2.67
2018-01-28T03:59:13.758Z,3.20
2018-01-28T04:01:43.077Z,3.13
2018-01-28T04:04:12.353Z,3.60
2018-01-28T04:06:41.600Z,3.67
2018-01-28T04:09:10.970Z,2.57
2018-01-28T04:11:40.257Z,2.67
2018-01-28T04:14:09.524Z,3.77
2018-01-28T04:16:39.081Z,2.37
2018-01-28T04:19:08.361Z,2.60
2018-01-28T04:21:37.609Z,3.77
2018-01-28T04:24:06.900Z,3.00
2018-01-28T04:26:36.194Z,2.70
2018-01-28T04:29:05.451Z,3.33
2018-01-28T04:31:35.522Z,3.30
2018-01-28T04:34:04.798Z,3.00
2018-01-28T04:36:33.598Z,2.63
2018-01-28T04:39:02.889Z,2.60
2018-01-28T04:41:32.299Z,2.67
2018-01-28T04:44:01.605Z,3.73
2018-01-28T04:46:30.876Z,4.60
2018-01-28T04:49:00.125Z,3.60
2018-01-28T04:51:29.457Z,5.57
2018-01-28T04:53:59.825Z,2.63
2018-01-28T04:56:29.138Z,3.23
2018-01-28T04:58:58.256Z,2.00
2018-01-28T05:01:38.206Z,3.20
2018-01-28T05:04:07.410Z,2.03
2018-01-28T05:06:36.533Z,2.33
2018-01-28T05:09:05.562Z,2.33
2018-01-28T05:11:34.759Z,1.90
2018-01-28T05:14:03.852Z,2.23
2018-01-28T05:16:32.989Z,2.53
2018-01-28T05:19:02.089Z,4.70
2018-01-28T05:21:31.193Z,4.10
2018-01-28T05:24:00.565Z,2.00
2018-01-28T05:26:29.705Z,2.40
2018-01-28T05:28:59.022Z,4.33
2018-01-28T05:31:28.268Z,1.57
2018-01-28T05:33:57.636Z,1.50
2018-01-28T05:36:27.062Z,1.47
2018-01-28T05:38:56.334Z,1.67
2018-01-28T05:41:25.629Z,1.73
2018-01-28T05:43:55.648Z,1.87
2018-01-28T05:46:24.921Z,4.67
2018-01-28T05:48:54.211Z,3.37
2018-01-28T05:51:23.529Z,2.30
2018-01-28T05:53:53.573Z,1.67
2018-01-28T05:56:22.845Z,1.70
2018-01-28T05:58:52.876Z,3.63
2018-01-28T06:01:22.968Z,3.67
2018-01-28T06:03:53.046Z,1.87
2018-01-28T06:06:22.357Z,3.23
2018-01-28T06:08:51.646Z,2.03
2018-01-28T06:11:21.048Z,3.53
2018-01-28T06:13:50.461Z,3.90
2018-01-28T06:16:19.750Z,3.47
2018-01-28T06:18:48.862Z,2.43
2018-01-28T06:21:18.301Z,2.27
2018-01-28T06:23:47.440Z,3.43
2018-01-28T06:26:16.547Z,3.57
2018-01-28T06:28:45.648Z,3.77
2018-01-28T06:31:15.009Z,4.07
2018-01-28T06:33:45.040Z,5.40
2018-01-28T06:36:14.296Z,3.37
2018-01-28T06:38:43.606Z,4.13
2018-01-28T06:41:13.073Z,5.50
2018-01-28T06:43:42.585Z,3.90
2018-01-28T06:46:12.249Z,4.20
2018-01-28T06:48:42.774Z,3.43
2018-01-28T06:51:12.139Z,4.83
2018-01-28T06:53:41.539Z,3.93
2018-01-28T06:56:10.825Z,7.07
2018-01-28T06:58:40.263Z,6.17
2018-01-28T07:01:09.682Z,6.63
2018-01-28T07:03:39.704Z,6.43
2018-01-28T07:06:09.736Z,6.77
2018-01-28T07:08:39.892Z,10.87
2018-01-28T07:11:09.415Z,9.57
2018-01-28T07:13:38.723Z,8.80
2018-01-28T07:16:07.984Z,9.13
2018-01-28T07:18:37.612Z,10.87
2018-01-28T07:21:06.893Z,8.27
2018-01-28T07:23:36.311Z,9.57
2018-01-28T07:26:05.607Z,8.83
2018-01-28T07:28:35.126Z,7.50
2018-01-28T07:31:04.554Z,4.87
2018-01-28T07:33:33.949Z,5.70
2018-01-28T07:36:03.446Z,9.40
2018-01-28T07:38:32.757Z,8.40
2018-01-28T07:41:01.895Z,8.43
2018-01-28T07:43:31.926Z,7.53
2018-01-28T07:46:01.202Z,7.70
2018-01-28T07:48:31.337Z,7.37
2018-01-28T07:51:00.592Z,9.07
2018-01-28T07:53:29.687Z,11.80
2018-01-28T07:55:58.957Z,8.17
2018-01-28T07:58:28.952Z,12.37
2018-01-28T08:00:58.224Z,13.50
2018-01-28T08:03:28.260Z,14.07
2018-01-28T08:05:57.568Z,15.57
2018-01-28T08:08:27.601Z,11.43
2018-01-28T08:10:56.962Z,11.67
2018-01-28T08:13:28.474Z,10.00
2018-01-28T08:15:57.762Z,10.93
2018-01-28T08:18:27.088Z,18.37
2018-01-28T08:20:56.156Z,9.53
2018-01-28T08:23:25.420Z,13.00
2018-01-28T08:25:55.270Z,10.10
2018-01-28T08:28:39.310Z,10.57
2018-01-28T08:31:08.412Z,9.33
2018-01-28T08:33:37.511Z,12.50
2018-01-28T08:36:06.601Z,9.03
2018-01-28T08:38:36.722Z,11.20
2018-01-28T08:41:06.001Z,11.80
2018-01-28T08:43:36.144Z,10.93
2018-01-28T08:46:05.474Z,7.93
2018-01-28T08:48:34.729Z,10.20
2018-01-28T08:51:04.000Z,7.80
2018-01-28T08:53:33.098Z,10.30
2018-01-28T08:56:02.379Z,6.27
2018-01-28T08:58:31.647Z,7.03
2018-01-28T09:01:01.413Z,8.37
2018-01-28T09:03:31.880Z,11.77
2018-01-28T09:06:01.152Z,9.43
2018-01-28T09:08:31.184Z,10.87
2018-01-28T09:11:00.444Z,9.83
2018-01-28T09:13:29.819Z,10.50
2018-01-28T09:15:59.101Z,8.70
2018-01-28T09:18:28.413Z,11.83
2018-01-28T09:20:57.926Z,11.00
2018-01-28T09:23:27.707Z,14.83
2018-01-28T09:25:56.798Z,13.43
2018-01-28T09:28:26.054Z,14.30
2018-01-28T09:30:55.325Z,9.90
2018-01-28T09:33:25.170Z,13.87
2018-01-28T09:35:54.862Z,8.97
2018-01-28T09:38:24.556Z,12.63
2018-01-28T09:40:54.088Z,10.70
2018-01-28T09:43:23.451Z,9.97
2018-01-28T09:45:52.789Z,11.73
2018-01-28T09:48:22.966Z,12.07
2018-01-28T09:50:52.241Z,9.43
2018-01-28T09:53:22.417Z,6.70
2018-01-28T09:55:51.909Z,10.77
2018-01-28T09:58:21.207Z,6.37
2018-01-28T10:00:50.508Z,7.37
2018-01-28T10:03:20.049Z,7.30
2018-01-28T10:05:49.141Z,8.20
2018-01-28T10:08:18.519Z,9.50
2018-01-28T10:10:47.836Z,8.63
2018-01-28T10:13:18.463Z,8.10
2018-01-28T10:15:47.723Z,8.30
2018-01-28T10:18:18.789Z,8.40
2018-01-28T10:20:48.198Z,10.03
2018-01-28T10:23:17.493Z,10.50
2018-01-28T10:25:46.932Z,9.37
2018-01-28T10:28:16.273Z,6.73
2018-01-28T10:30:46.343Z,8.17
2018-01-28T10:33:15.884Z,8.97
2018-01-28T10:35:45.979Z,6.40
2018-01-28T10:38:15.580Z,8.73
2018-01-28T10:40:45.153Z,7.97
2018-01-28T10:43:14.467Z,10.63
2018-01-28T10:45:43.790Z,8.97
2018-01-28T10:48:13.191Z,8.77
2018-01-28T10:50:42.877Z,9.60
2018-01-28T10:53:12.104Z,12.40
2018-01-28T10:55:41.481Z,12.77
2018-01-28T10:58:10.899Z,10.37
2018-01-28T11:00:40.283Z,11.03
2018-01-28T11:03:10.128Z,11.93
2018-01-28T11:05:39.404Z,11.60
2018-01-28T11:08:08.831Z,13.37
2018-01-28T11:10:38.302Z,9.43
2018-01-28T11:13:07.624Z,8.53
2018-01-28T11:15:36.935Z,9.17
2018-01-28T11:18:06.217Z,9.87
2018-01-28T11:20:35.518Z,10.17
2018-01-28T11:23:04.613Z,10.30
2018-01-28T11:25:33.927Z,7.77
2018-01-28T11:28:03.216Z,9.87
2018-01-28T11:30:32.813Z,8.20
2018-01-28T11:33:02.094Z,10.83
2018-01-28T11:35:32.266Z,11.03
2018-01-28T11:38:01.547Z,11.67
2018-01-28T11:40:30.956Z,10.07
2018-01-28T11:43:00.235Z,11.73
2018-01-28T11:45:29.543Z,9.53
2018-01-28T11:47:59.087Z,9.37
2018-01-28T11:50:28.774Z,9.03
2018-01-28T11:52:58.960Z,9.63
2018-01-28T11:55:29.024Z,8.63
2018-01-28T11:57:59.359Z,10.07
2018-01-28T12:00:28.646Z,11.53
2018-01-28T12:02:58.016Z,7.93
2018-01-28T12:05:27.306Z,6.77
2018-01-28T12:07:57.341Z,9.43
2018-01-28T12:10:26.640Z,9.47
2018-01-28T12:12:55.915Z,8.63
2018-01-28T12:15:26.186Z,10.30
2018-01-28T12:17:55.495Z,7.87
2018-01-28T12:20:25.211Z,12.43
2018-01-28T12:22:55.075Z,6.93
2018-01-28T12:25:25.219Z,7.77
2018-01-28T12:27:54.324Z,10.47
2018-01-28T12:30:23.696Z,8.67
2018-01-28T12:32:53.891Z,5.03
2018-01-28T12:35:23.345Z,7.50
2018-01-28T12:37:52.770Z,6.40
2018-01-28T12:40:22.112Z,9.57
2018-01-28T12:42:52.322Z,7.53
2018-01-28T12:45:21.599Z,6.03
2018-01-28T12:47:51.272Z,4.50
2018-01-28T12:50:21.182Z,5.17
2018-01-28T12:52:50.476Z,4.07
2018-01-28T12:55:20.739Z,4.50
2018-01-28T12:57:50.073Z,4.50
2018-01-28T13:00:19.352Z,5.17
2018-01-28T13:02:48.804Z,3.77
2018-01-28T13:05:18.626Z,4.47
2018-01-28T13:07:48.654Z,5.97
2018-01-28T13:10:18.034Z,7.17
2018-01-28T13:12:48.072Z,6.07
2018-01-28T13:15:17.356Z,4.73
2018-01-28T13:17:50.570Z,6.37
2018-01-28T13:20:19.906Z,4.13
2018-01-28T13:22:49.216Z,3.20
2018-01-28T13:25:18.654Z,7.57
2018-01-28T13:27:48.876Z,7.13
2018-01-28T13:30:18.929Z,5.70
2018-01-28T13:32:48.328Z,4.67
2018-01-28T13:35:17.629Z,6.23
2018-01-28T13:37:47.189Z,4.67
2018-01-28T13:40:17.256Z,4.53
2018-01-28T13:42:46.528Z,5.90
2018-01-28T13:45:16.610Z,7.07
2018-01-28T13:47:45.700Z,7.73
2018-01-28T13:50:14.981Z,7.70
2018-01-28T13:52:44.683Z,9.47
2018-01-28T13:55:14.261Z,8.07
2018-01-28T13:57:44.497Z,6.90
2018-01-28T14:00:13.950Z,10.47
2018-01-28T14:02:43.020Z,8.80
2018-01-28T14:05:12.455Z,7.77
2018-01-28T14:07:41.888Z,8.00
2018-01-28T14:10:12.256Z,7.70
2018-01-28T14:12:41.630Z,7.80
2018-01-28T14:15:10.998Z,7.63
2018-01-28T14:17:40.288Z,6.70
2018-01-28T14:20:09.826Z,9.43
2018-01-28T14:22:39.675Z,5.97
2018-01-28T14:25:08.786Z,12.30
2018-01-28T14:27:37.875Z,5.93
2018-01-28T14:30:07.390Z,8.77
2018-01-28T14:32:36.671Z,6.77
2018-01-28T14:35:06.786Z,6.00
2018-01-28T14:37:36.214Z,7.50
2018-01-28T14:40:06.495Z,4.63
2018-01-28T14:42:37.114Z,7.03
2018-01-28T14:45:07.437Z,5.60
2018-01-28T14:47:37.757Z,9.60
2018-01-28T14:50:08.045Z,9.07
2018-01-28T14:52:37.326Z,8.00
2018-01-28T14:55:06.766Z,5.77
2018-01-28T14:57:36.052Z,6.37
2018-01-28T15:00:04.580Z,7.13
2018-01-28T15:02:35.307Z,6.23
2018-01-28T15:05:05.549Z,7.37
2018-01-28T15:07:34.846Z,6.73
2018-01-28T15:10:05.013Z,10.73
2018-01-28T15:12:34.493Z,7.70
2018-01-28T15:15:03.778Z,9.93
2018-01-28T15:17:34.568Z,9.33
2018-01-28T15:20:04.457Z,10.10
2018-01-28T15:22:33.789Z,8.83
2018-01-28T15:25:03.065Z,7.43
2018-01-28T15:27:33.217Z,4.70
2018-01-28T15:30:02.583Z,6.97
2018-01-28T15:32:31.959Z,6.77
2018-01-28T15:35:02.071Z,7.60
2018-01-28T15:37:32.732Z,8.23
2018-01-28T15:40:01.848Z,6.27
2018-01-28T15:42:30.940Z,5.27
2018-01-28T15:45:00.165Z,6.20
2018-01-28T15:47:29.269Z,6.43
2018-01-28T15:50:00.352Z,7.23
2018-01-28T15:52:30.389Z,4.87
2018-01-28T15:54:59.670Z,3.77
2018-01-28T15:57:28.946Z,6.70
2018-01-28T15:59:59.006Z,7.20
2018-01-28T16:02:28.127Z,6.37
2018-01-28T16:04:57.327Z,7.63
2018-01-28T16:07:26.671Z,6.27
2018-01-28T16:09:56.014Z,7.27
2018-01-28T16:12:25.313Z,7.33
2018-01-28T16:14:54.642Z,6.97
2018-01-28T16:17:24.096Z,9.47
2018-01-28T16:19:53.765Z,12.23
2018-01-28T16:22:23.944Z,14.00
2018-01-28T16:24:53.506Z,10.50
2018-01-28T16:27:23.660Z,7.97
2018-01-28T16:29:53.166Z,6.57
2018-01-28T16:32:22.537Z,4.17
2018-01-28T16:34:52.565Z,10.43
2018-01-28T16:37:23.019Z,8.47
2018-01-28T16:39:52.646Z,8.60
2018-01-28T16:42:22.427Z,7.57
2018-01-28T16:44:51.795Z,9.47
2018-01-28T16:47:21.720Z,7.57
2018-01-28T16:49:51.893Z,7.90
2018-01-28T16:52:21.579Z,9.60
2018-01-28T16:54:50.984Z,5.50
2018-01-28T16:57:20.090Z,7.97
2018-01-28T16:59:50.283Z,5.13
2018-01-28T17:02:19.727Z,9.13
2018-01-28T17:04:49.239Z,10.27
2018-01-28T17:07:18.559Z,9.97
2018-01-28T17:09:47.914Z,6.93
2018-01-28T17:12:17.200Z,9.53
2018-01-28T17:14:46.831Z,9.77
2018-01-28T17:17:16.940Z,7.00
2018-01-28T17:19:46.660Z,7.33
2018-01-28T17:22:16.054Z,8.50
2018-01-28T17:24:45.926Z,7.53
2018-01-28T17:27:17.583Z,6.73
2018-01-28T17:29:47.098Z,3.43
2018-01-28T17:32:17.823Z,5.73
2018-01-28T17:34:47.780Z,5.00
2018-01-28T17:37:17.556Z,7.90
2018-01-28T17:39:47.942Z,7.67
2018-01-28T17:42:17.734Z,7.53
2018-01-28T17:44:47.653Z,8.07
2018-01-28T17:47:17.157Z,8.20
2018-01-28T17:49:46.872Z,7.77
2018-01-28T17:52:16.760Z,11.63
2018-01-28T17:54:46.622Z,8.97
2018-01-28T17:57:16.688Z,8.83
2018-01-28T17:59:47.109Z,7.87
2018-01-28T18:02:17.321Z,7.60
2018-01-28T18:04:47.661Z,8.83
2018-01-28T18:07:17.835Z,6.27
2018-01-28T18:09:47.517Z,6.90
2018-01-28T18:12:17.002Z,5.20
2018-01-28T18:14:46.812Z,6.63
2018-01-28T18:17:17.063Z,5.40
2018-01-28T18:19:46.423Z,5.33
2018-01-28T18:22:18.150Z,4.20
2018-01-28T18:24:48.340Z,5.13
2018-01-28T18:27:17.844Z,4.77
2018-01-28T18:29:47.286Z,4.63
2018-01-28T18:32:17.378Z,6.10
2018-01-28T18:34:47.332Z,6.17
2018-01-28T18:37:16.991Z,4.33
2018-01-28T18:39:47.239Z,4.70
2018-01-28T18:42:16.521Z,4.90
2018-01-28T18:44:45.827Z,4.83
2018-01-28T18:47:15.283Z,6.70
2018-01-28T18:49:52.402Z,5.30
2018-01-28T18:58:52.882Z,7.27
2018-01-28T19:01:24.382Z,4.90
2018-01-28T19:03:53.781Z,7.97
2018-01-28T19:06:23.102Z,5.87
2018-01-28T19:08:52.924Z,5.07
2018-01-28T19:11:22.969Z,5.60
2018-01-28T19:13:52.471Z,4.87
2018-01-28T19:16:22.056Z,6.60
2018-01-28T19:18:52.244Z,6.60
2018-01-28T19:21:22.750Z,7.27
2018-01-28T19:23:52.194Z,7.30
2018-01-28T19:26:22.493Z,10.57
2018-01-28T19:28:52.082Z,6.70
2018-01-28T19:31:21.804Z,8.80
2018-01-28T19:33:51.319Z,8.30
2018-01-28T19:36:21.199Z,9.23
2018-01-28T19:38:50.574Z,8.37
2018-01-28T19:41:19.910Z,10.03
2018-01-28T19:43:49.289Z,9.67
2018-01-28T19:46:18.873Z,8.50
2018-01-28T19:48:48.169Z,8.17
2018-01-28T19:51:18.433Z,14.27
2018-01-28T19:53:47.742Z,8.57
2018-01-28T19:56:17.018Z,10.53
2018-01-28T19:58:46.342Z,9.50
2018-01-28T20:01:15.829Z,7.97
2018-01-28T20:03:45.209Z,8.73
2018-01-28T20:06:15.278Z,7.93
2018-01-28T20:08:45.568Z,7.07
2018-01-28T20:11:14.893Z,8.47
2018-01-28T20:13:44.191Z,8.77
2018-01-28T20:16:13.547Z,12.33
2018-01-28T20:18:44.350Z,8.80
2018-01-28T20:21:13.637Z,10.53
2018-01-28T20:23:43.173Z,8.47
2018-01-28T20:26:12.702Z,10.47
2018-01-28T20:28:43.039Z,7.57
2018-01-28T20:31:13.788Z,6.07
2018-01-28T20:33:44.074Z,7.20
2018-01-28T20:36:13.396Z,5.70
2018-01-28T20:38:42.997Z,6.30
2018-01-28T20:41:13.583Z,8.83
2018-01-28T20:43:43.065Z,11.97
2018-01-28T20:46:12.579Z,10.57
2018-01-28T20:48:41.977Z,10.23
2018-01-28T20:51:11.262Z,10.40
2018-01-28T20:53:41.262Z,7.83
2018-01-28T20:56:10.637Z,8.73
2018-01-28T20:58:39.951Z,10.23
2018-01-28T21:01:09.351Z,10.43
2018-01-28T21:03:39.122Z,8.47
2018-01-28T21:06:08.563Z,9.23
2018-01-28T21:08:38.295Z,10.03
2018-01-28T21:11:08.478Z,8.60
2018-01-28T21:13:37.878Z,7.30
2018-01-28T21:16:07.561Z,5.87
2018-01-28T21:18:37.222Z,5.60
2018-01-28T21:21:06.716Z,5.70
2018-01-28T21:23:36.539Z,4.97
2018-01-28T21:26:07.133Z,4.17
2018-01-28T21:28:36.657Z,3.90
2018-01-28T21:31:06.351Z,5.37
2018-01-28T21:33:35.956Z,4.90
2018-01-28T21:36:05.476Z,4.40
2018-01-28T21:38:35.007Z,3.90
2018-01-28T21:41:04.709Z,6.90
2018-01-28T21:43:34.042Z,6.50
2018-01-28T21:46:04.872Z,6.73
2018-01-28T21:48:34.402Z,6.10
2018-01-28T21:51:04.828Z,5.87
2018-01-28T21:53:34.897Z,9.17
2018-01-28T21:56:04.241Z,9.33
2018-01-28T21:58:33.640Z,9.13
2018-01-28T22:01:04.005Z,11.70
2018-01-28T22:03:33.307Z,10.07
2018-01-28T22:06:02.611Z,9.77
2018-01-28T22:08:31.776Z,11.03
2018-01-28T22:11:01.978Z,7.87
2018-01-28T22:13:31.470Z,9.43
2018-01-28T22:16:00.924Z,10.23
2018-01-28T22:18:31.125Z,10.17
2018-01-28T22:21:00.423Z,9.80
2018-01-28T22:23:30.268Z,9.67
2018-01-28T22:26:00.538Z,10.13
2018-01-28T22:28:30.968Z,11.07
2018-01-28T22:31:00.265Z,11.67
2018-01-28T22:33:29.664Z,8.33
2018-01-28T22:35:59.602Z,10.27
2018-01-28T22:38:28.904Z,6.77
2018-01-28T22:40:58.220Z,9.43
2018-01-28T22:43:27.872Z,7.13
2018-01-28T22:45:58.235Z,6.87
2018-01-28T22:48:27.563Z,8.07
2018-01-28T22:50:56.860Z,6.30
2018-01-28T22:53:26.148Z,6.33
2018-01-28T22:55:55.446Z,6.07
2018-01-28T22:58:24.742Z,5.07
2018-01-28T23:00:54.014Z,6.77
2018-01-28T23:03:36.047Z,7.00
2018-01-28T23:06:05.327Z,5.63
2018-01-28T23:08:34.649Z,6.50
2018-01-28T23:11:03.961Z,5.10
2018-01-28T23:13:33.555Z,4.70
2018-01-28T23:16:23.378Z,4.87
2018-01-28T23:18:54.482Z,6.70
2018-01-28T23:21:52.221Z,5.67
2018-01-28T23:24:22.588Z,5.77
2018-01-28T23:26:52.068Z,5.60
2018-01-28T23:29:21.441Z,5.20
2018-01-28T23:31:50.869Z,7.73
2018-01-28T23:34:23.848Z,6.93
2018-01-28T23:36:53.403Z,7.73
2018-01-28T23:39:47.236Z,7.70
2018-01-28T23:42:16.708Z,6.70
2018-01-28T23:44:47.116Z,9.53
2018-01-28T23:47:16.958Z,8.77
2018-01-28T23:50:12.552Z,6.90
2018-01-28T23:52:42.628Z,8.13
2018-01-28T23:55:12.270Z,10.47
2018-01-28T23:57:44.200Z,7.67
